sensor_id;sensor_type;location;lat;lon;timestamp;temperature;humidity
12164;DHT22;6145;50.192;10.064;2023-07-16T00:28:42;23.70;82.10
12164;DHT22;6145;50.192;10.064;2023-07-16T00:31:14;23.60;82.50
12164;DHT22;6145;50.192;10.064;2023-07-16T00:33:46;23.70;82.10
12164;DHT22;6145;50.192;10.064;2023-07-16T00:36:17;23.60;82.20
12164;DHT22;6145;50.192;10.064;2023-07-16T00:38:44;23.50;82.60
12164;DHT22;6145;50.192;10.064;2023-07-16T00:41:13;23.40;83.00
12164;DHT22;6145;50.192;10.064;2023-07-16T00:43:43;23.30;83.30
12164;DHT22;6145;50.192;10.064;2023-07-16T00:46:11;23.10;83.40
12164;DHT22;6145;50.192;10.064;2023-07-16T00:48:57;23.20;84.10
12164;DHT22;6145;50.192;10.064;2023-07-16T00:51:29;23.20;84.30
12164;DHT22;6145;50.192;10.064;2023-07-16T00:54:11;22.90;84.90
12164;DHT22;6145;50.192;10.064;2023-07-16T00:56:43;23.00;85.50
12164;DHT22;6145;50.192;10.064;2023-07-16T00:59:16;22.90;85.80
12164;DHT22;6145;50.192;10.064;2023-07-16T01:01:49;22.70;86.00
12164;DHT22;6145;50.192;10.064;2023-07-16T01:04:17;22.70;86.80
12164;DHT22;6145;50.192;10.064;2023-07-16T01:06:51;22.70;87.00
12164;DHT22;6145;50.192;10.064;2023-07-16T01:09:20;22.90;87.30
12164;DHT22;6145;50.192;10.064;2023-07-16T01:11:48;22.60;87.30
12164;DHT22;6145;50.192;10.064;2023-07-16T01:14:18;22.70;87.20
12164;DHT22;6145;50.192;10.064;2023-07-16T01:16:46;22.70;86.90
12164;DHT22;6145;50.192;10.064;2023-07-16T01:19:13;22.80;87.00
12164;DHT22;6145;50.192;10.064;2023-07-16T01:21:45;22.70;86.80
12164;DHT22;6145;50.192;10.064;2023-07-16T01:24:37;22.70;87.00
12164;DHT22;6145;50.192;10.064;2023-07-16T01:27:24;22.60;87.40
12164;DHT22;6145;50.192;10.064;2023-07-16T01:29:58;22.60;87.60
12164;DHT22;6145;50.192;10.064;2023-07-16T01:32:28;22.60;87.60
12164;DHT22;6145;50.192;10.064;2023-07-16T01:34:57;22.40;87.30
12164;DHT22;6145;50.192;10.064;2023-07-16T01:37:24;22.40;87.60
12164;DHT22;6145;50.192;10.064;2023-07-16T01:39:51;22.70;88.40
12164;DHT22;6145;50.192;10.064;2023-07-16T01:42:18;22.30;88.30
12164;DHT22;6145;50.192;10.064;2023-07-16T01:44:45;22.20;88.30
12164;DHT22;6145;50.192;10.064;2023-07-16T01:47:23;22.20;88.80
12164;DHT22;6145;50.192;10.064;2023-07-16T01:49:50;22.30;88.90
12164;DHT22;6145;50.192;10.064;2023-07-16T01:52:17;22.20;88.90
12164;DHT22;6145;50.192;10.064;2023-07-16T01:54:44;22.20;88.90
12164;DHT22;6145;50.192;10.064;2023-07-16T01:57:11;22.20;89.00
12164;DHT22;6145;50.192;10.064;2023-07-16T01:59:38;22.30;89.00
12164;DHT22;6145;50.192;10.064;2023-07-16T02:02:05;22.30;89.10
12164;DHT22;6145;50.192;10.064;2023-07-16T02:04:34;22.40;89.00
12164;DHT22;6145;50.192;10.064;2023-07-16T02:07:01;22.40;88.70
12164;DHT22;6145;50.192;10.064;2023-07-16T02:09:29;22.40;88.60
12164;DHT22;6145;50.192;10.064;2023-07-16T02:11:55;22.50;88.70
12164;DHT22;6145;50.192;10.064;2023-07-16T02:14:23;22.40;88.30
12164;DHT22;6145;50.192;10.064;2023-07-16T02:16:50;22.30;88.60
12164;DHT22;6145;50.192;10.064;2023-07-16T02:19:16;22.60;88.40
12164;DHT22;6145;50.192;10.064;2023-07-16T02:21:45;22.40;88.40
12164;DHT22;6145;50.192;10.064;2023-07-16T02:24:12;22.10;88.50
12164;DHT22;6145;50.192;10.064;2023-07-16T02:26:39;22.20;88.90
12164;DHT22;6145;50.192;10.064;2023-07-16T02:29:06;22.20;89.20
12164;DHT22;6145;50.192;10.064;2023-07-16T02:31:34;22.30;89.10
12164;DHT22;6145;50.192;10.064;2023-07-16T02:34:01;22.10;88.60
12164;DHT22;6145;50.192;10.064;2023-07-16T02:36:30;22.20;88.30
12164;DHT22;6145;50.192;10.064;2023-07-16T02:39:02;22.30;88.40
12164;DHT22;6145;50.192;10.064;2023-07-16T02:41:29;22.20;88.50
12164;DHT22;6145;50.192;10.064;2023-07-16T02:44:00;22.40;89.10
12164;DHT22;6145;50.192;10.064;2023-07-16T02:46:27;22.20;88.10
12164;DHT22;6145;50.192;10.064;2023-07-16T02:48:53;22.20;88.20
12164;DHT22;6145;50.192;10.064;2023-07-16T02:51:20;22.20;88.40
12164;DHT22;6145;50.192;10.064;2023-07-16T02:53:47;22.20;88.10
12164;DHT22;6145;50.192;10.064;2023-07-16T02:56:15;22.30;88.30
12164;DHT22;6145;50.192;10.064;2023-07-16T02:58:43;22.20;87.90
12164;DHT22;6145;50.192;10.064;2023-07-16T03:01:09;22.20;87.70
12164;DHT22;6145;50.192;10.064;2023-07-16T03:03:36;22.20;87.40
12164;DHT22;6145;50.192;10.064;2023-07-16T03:06:03;22.20;87.50
12164;DHT22;6145;50.192;10.064;2023-07-16T03:08:30;22.20;87.20
12164;DHT22;6145;50.192;10.064;2023-07-16T03:10:57;22.30;87.30
12164;DHT22;6145;50.192;10.064;2023-07-16T03:13:25;22.10;87.00
12164;DHT22;6145;50.192;10.064;2023-07-16T03:15:52;22.20;87.30
12164;DHT22;6145;50.192;10.064;2023-07-16T03:18:19;22.20;87.20
12164;DHT22;6145;50.192;10.064;2023-07-16T03:20:52;22.10;86.70
12164;DHT22;6145;50.192;10.064;2023-07-16T03:23:19;22.10;87.00
12164;DHT22;6145;50.192;10.064;2023-07-16T03:25:46;22.00;86.70
12164;DHT22;6145;50.192;10.064;2023-07-16T03:28:13;22.10;86.70
12164;DHT22;6145;50.192;10.064;2023-07-16T03:30:45;21.90;86.80
12164;DHT22;6145;50.192;10.064;2023-07-16T03:33:11;21.80;86.10
12164;DHT22;6145;50.192;10.064;2023-07-16T03:35:38;21.70;86.50
12164;DHT22;6145;50.192;10.064;2023-07-16T03:38:05;21.70;86.10
12164;DHT22;6145;50.192;10.064;2023-07-16T03:40:32;21.60;86.50
12164;DHT22;6145;50.192;10.064;2023-07-16T03:42:59;21.60;86.50
12164;DHT22;6145;50.192;10.064;2023-07-16T03:45:25;21.60;86.70
12164;DHT22;6145;50.192;10.064;2023-07-16T03:47:54;21.50;86.50
12164;DHT22;6145;50.192;10.064;2023-07-16T03:50:20;21.70;86.20
12164;DHT22;6145;50.192;10.064;2023-07-16T03:52:47;21.50;85.60
12164;DHT22;6145;50.192;10.064;2023-07-16T03:55:14;22.30;86.00
12164;DHT22;6145;50.192;10.064;2023-07-16T03:57:41;21.50;84.90
12164;DHT22;6145;50.192;10.064;2023-07-16T04:00:09;21.50;85.00
12164;DHT22;6145;50.192;10.064;2023-07-16T04:02:36;21.50;84.60
12164;DHT22;6145;50.192;10.064;2023-07-16T04:05:10;21.50;84.50
12164;DHT22;6145;50.192;10.064;2023-07-16T04:07:36;21.50;84.20
12164;DHT22;6145;50.192;10.064;2023-07-16T04:10:04;21.40;83.50
12164;DHT22;6145;50.192;10.064;2023-07-16T04:12:31;21.40;83.70
12164;DHT22;6145;50.192;10.064;2023-07-16T04:14:58;21.40;83.60
12164;DHT22;6145;50.192;10.064;2023-07-16T04:17:26;21.40;83.20
12164;DHT22;6145;50.192;10.064;2023-07-16T04:19:52;21.40;83.20
12164;DHT22;6145;50.192;10.064;2023-07-16T04:22:20;21.40;83.00
12164;DHT22;6145;50.192;10.064;2023-07-16T04:24:47;21.40;83.30
12164;DHT22;6145;50.192;10.064;2023-07-16T04:27:14;21.50;82.90
12164;DHT22;6145;50.192;10.064;2023-07-16T04:29:41;21.30;83.10
12164;DHT22;6145;50.192;10.064;2023-07-16T04:32:08;21.30;83.30
12164;DHT22;6145;50.192;10.064;2023-07-16T04:34:35;21.40;83.60
12164;DHT22;6145;50.192;10.064;2023-07-16T04:37:02;21.30;83.30
12164;DHT22;6145;50.192;10.064;2023-07-16T04:39:30;21.40;83.80
12164;DHT22;6145;50.192;10.064;2023-07-16T04:42:02;21.40;84.00
12164;DHT22;6145;50.192;10.064;2023-07-16T04:44:29;21.40;83.50
12164;DHT22;6145;50.192;10.064;2023-07-16T04:46:56;21.40;83.50
12164;DHT22;6145;50.192;10.064;2023-07-16T04:49:22;21.30;83.70
12164;DHT22;6145;50.192;10.064;2023-07-16T04:51:49;21.40;83.80
12164;DHT22;6145;50.192;10.064;2023-07-16T04:54:18;21.30;84.20
12164;DHT22;6145;50.192;10.064;2023-07-16T04:57:08;21.30;84.40
12164;DHT22;6145;50.192;10.064;2023-07-16T04:59:35;21.00;84.70
12164;DHT22;6145;50.192;10.064;2023-07-16T05:02:12;21.10;85.30
12164;DHT22;6145;50.192;10.064;2023-07-16T05:04:45;21.00;85.30
12164;DHT22;6145;50.192;10.064;2023-07-16T05:07:13;20.20;84.80
12164;DHT22;6145;50.192;10.064;2023-07-16T05:09:40;21.10;85.90
12164;DHT22;6145;50.192;10.064;2023-07-16T05:12:08;21.10;85.80
12164;DHT22;6145;50.192;10.064;2023-07-16T05:14:43;21.20;85.60
12164;DHT22;6145;50.192;10.064;2023-07-16T05:17:11;21.20;85.50
12164;DHT22;6145;50.192;10.064;2023-07-16T05:19:38;21.20;85.30
12164;DHT22;6145;50.192;10.064;2023-07-16T05:22:05;21.30;85.40
12164;DHT22;6145;50.192;10.064;2023-07-16T05:24:32;21.30;84.80
12164;DHT22;6145;50.192;10.064;2023-07-16T05:26:59;21.30;84.50
12164;DHT22;6145;50.192;10.064;2023-07-16T05:29:28;21.30;84.20
12164;DHT22;6145;50.192;10.064;2023-07-16T05:31:56;21.30;84.10
12164;DHT22;6145;50.192;10.064;2023-07-16T05:34:23;21.30;84.00
12164;DHT22;6145;50.192;10.064;2023-07-16T05:36:53;21.30;83.90
12164;DHT22;6145;50.192;10.064;2023-07-16T05:39:19;21.30;83.90
12164;DHT22;6145;50.192;10.064;2023-07-16T05:41:46;21.40;84.20
12164;DHT22;6145;50.192;10.064;2023-07-16T05:44:13;21.40;83.80
12164;DHT22;6145;50.192;10.064;2023-07-16T05:46:41;21.40;84.10
12164;DHT22;6145;50.192;10.064;2023-07-16T05:49:08;21.40;83.70
12164;DHT22;6145;50.192;10.064;2023-07-16T05:51:35;21.40;83.40
12164;DHT22;6145;50.192;10.064;2023-07-16T05:54:01;21.40;82.60
12164;DHT22;6145;50.192;10.064;2023-07-16T05:56:28;21.40;82.40
12164;DHT22;6145;50.192;10.064;2023-07-16T05:58:55;21.50;84.40
12164;DHT22;6145;50.192;10.064;2023-07-16T06:01:22;21.60;85.20
12164;DHT22;6145;50.192;10.064;2023-07-16T06:03:50;21.80;85.80
12164;DHT22;6145;50.192;10.064;2023-07-16T06:06:17;22.10;84.50
12164;DHT22;6145;50.192;10.064;2023-07-16T06:08:44;22.20;81.90
12164;DHT22;6145;50.192;10.064;2023-07-16T06:11:12;22.30;81.70
12164;DHT22;6145;50.192;10.064;2023-07-16T06:13:39;22.50;81.40
12164;DHT22;6145;50.192;10.064;2023-07-16T06:16:05;22.70;80.00
12164;DHT22;6145;50.192;10.064;2023-07-16T06:18:32;22.80;79.70
12164;DHT22;6145;50.192;10.064;2023-07-16T06:21:00;23.00;78.90
12164;DHT22;6145;50.192;10.064;2023-07-16T06:23:27;23.10;77.70
12164;DHT22;6145;50.192;10.064;2023-07-16T06:25:54;23.30;78.50
12164;DHT22;6145;50.192;10.064;2023-07-16T06:28:21;23.40;76.70
12164;DHT22;6145;50.192;10.064;2023-07-16T06:30:49;23.40;74.40
12164;DHT22;6145;50.192;10.064;2023-07-16T06:33:17;23.30;73.30
12164;DHT22;6145;50.192;10.064;2023-07-16T06:35:45;23.30;73.30
12164;DHT22;6145;50.192;10.064;2023-07-16T06:38:14;23.40;72.40
12164;DHT22;6145;50.192;10.064;2023-07-16T06:40:46;23.40;73.60
12164;DHT22;6145;50.192;10.064;2023-07-16T06:43:14;23.40;72.50
12164;DHT22;6145;50.192;10.064;2023-07-16T06:45:41;23.40;73.20
12164;DHT22;6145;50.192;10.064;2023-07-16T06:48:08;23.50;73.50
12164;DHT22;6145;50.192;10.064;2023-07-16T06:50:35;23.70;73.40
12164;DHT22;6145;50.192;10.064;2023-07-16T06:53:02;23.70;71.30
12164;DHT22;6145;50.192;10.064;2023-07-16T06:55:31;23.60;70.50
12164;DHT22;6145;50.192;10.064;2023-07-16T06:58:02;23.30;68.80
12164;DHT22;6145;50.192;10.064;2023-07-16T07:00:29;23.70;70.60
12164;DHT22;6145;50.192;10.064;2023-07-16T07:02:56;23.70;71.40
12164;DHT22;6145;50.192;10.064;2023-07-16T07:05:23;23.90;70.10
12164;DHT22;6145;50.192;10.064;2023-07-16T07:07:50;24.00;69.10
12164;DHT22;6145;50.192;10.064;2023-07-16T07:10:17;24.40;70.00
12164;DHT22;6145;50.192;10.064;2023-07-16T07:12:45;24.00;68.00
12164;DHT22;6145;50.192;10.064;2023-07-16T07:18:26;24.10;67.30
12164;DHT22;6145;50.192;10.064;2023-07-16T07:20:53;24.20;67.10
12164;DHT22;6145;50.192;10.064;2023-07-16T07:23:20;24.30;66.70
12164;DHT22;6145;50.192;10.064;2023-07-16T07:25:49;24.30;66.10
12164;DHT22;6145;50.192;10.064;2023-07-16T07:28:19;24.40;64.30
12164;DHT22;6145;50.192;10.064;2023-07-16T07:30:46;24.30;64.60
12164;DHT22;6145;50.192;10.064;2023-07-16T07:33:13;24.40;65.10
12164;DHT22;6145;50.192;10.064;2023-07-16T07:35:41;24.60;64.30
12164;DHT22;6145;50.192;10.064;2023-07-16T07:38:07;24.60;65.00
12164;DHT22;6145;50.192;10.064;2023-07-16T07:40:34;24.90;64.30
12164;DHT22;6145;50.192;10.064;2023-07-16T07:43:04;24.90;62.70
12164;DHT22;6145;50.192;10.064;2023-07-16T07:45:32;25.10;61.40
12164;DHT22;6145;50.192;10.064;2023-07-16T07:47:59;25.10;61.50
12164;DHT22;6145;50.192;10.064;2023-07-16T07:50:26;25.10;61.30
12164;DHT22;6145;50.192;10.064;2023-07-16T07:52:54;25.30;59.80
12164;DHT22;6145;50.192;10.064;2023-07-16T07:55:21;25.30;59.10
12164;DHT22;6145;50.192;10.064;2023-07-16T07:57:48;25.40;58.70
12164;DHT22;6145;50.192;10.064;2023-07-16T08:00:15;25.20;57.80
12164;DHT22;6145;50.192;10.064;2023-07-16T08:02:43;25.10;58.70
12164;DHT22;6145;50.192;10.064;2023-07-16T08:08:23;24.90;58.80
12164;DHT22;6145;50.192;10.064;2023-07-16T08:10:50;24.60;58.60
12164;DHT22;6145;50.192;10.064;2023-07-16T08:13:17;24.70;59.40
12164;DHT22;6145;50.192;10.064;2023-07-16T08:15:44;24.90;59.90
12164;DHT22;6145;50.192;10.064;2023-07-16T08:18:12;24.60;59.20
12164;DHT22;6145;50.192;10.064;2023-07-16T08:20:39;24.60;59.60
12164;DHT22;6145;50.192;10.064;2023-07-16T08:23:06;24.70;60.30
12164;DHT22;6145;50.192;10.064;2023-07-16T08:25:33;24.50;59.30
12164;DHT22;6145;50.192;10.064;2023-07-16T08:28:02;24.40;59.30
12164;DHT22;6145;50.192;10.064;2023-07-16T08:30:29;24.30;59.80
12164;DHT22;6145;50.192;10.064;2023-07-16T08:33:00;24.30;59.70
12164;DHT22;6145;50.192;10.064;2023-07-16T08:35:28;24.30;59.00
12164;DHT22;6145;50.192;10.064;2023-07-16T08:37:55;24.20;59.60
12164;DHT22;6145;50.192;10.064;2023-07-16T08:40:23;24.20;59.50
12164;DHT22;6145;50.192;10.064;2023-07-16T08:42:50;24.20;59.90
12164;DHT22;6145;50.192;10.064;2023-07-16T08:45:17;24.10;59.50
12164;DHT22;6145;50.192;10.064;2023-07-16T08:47:50;24.30;59.80
12164;DHT22;6145;50.192;10.064;2023-07-16T08:50:18;24.10;59.30
12164;DHT22;6145;50.192;10.064;2023-07-16T08:52:47;24.00;58.70
12164;DHT22;6145;50.192;10.064;2023-07-16T08:55:14;24.10;59.20
12164;DHT22;6145;50.192;10.064;2023-07-16T08:57:41;24.00;58.90
12164;DHT22;6145;50.192;10.064;2023-07-16T09:00:10;24.10;59.20
12164;DHT22;6145;50.192;10.064;2023-07-16T09:02:42;24.10;59.70
12164;DHT22;6145;50.192;10.064;2023-07-16T09:05:09;24.10;58.50
12164;DHT22;6145;50.192;10.064;2023-07-16T09:07:37;24.20;57.30
12164;DHT22;6145;50.192;10.064;2023-07-16T09:10:06;24.10;56.20
12164;DHT22;6145;50.192;10.064;2023-07-16T09:12:33;24.10;57.00
12164;DHT22;6145;50.192;10.064;2023-07-16T09:15:01;24.00;56.70
12164;DHT22;6145;50.192;10.064;2023-07-16T09:17:28;24.10;57.60
12164;DHT22;6145;50.192;10.064;2023-07-16T09:19:55;24.10;57.70
12164;DHT22;6145;50.192;10.064;2023-07-16T09:22:22;24.20;57.20
12164;DHT22;6145;50.192;10.064;2023-07-16T09:24:49;24.50;56.10
12164;DHT22;6145;50.192;10.064;2023-07-16T09:27:17;24.30;55.50
12164;DHT22;6145;50.192;10.064;2023-07-16T09:29:44;24.20;55.20
12164;DHT22;6145;50.192;10.064;2023-07-16T09:32:11;24.20;55.80
12164;DHT22;6145;50.192;10.064;2023-07-16T09:34:37;24.30;55.20
12164;DHT22;6145;50.192;10.064;2023-07-16T09:37:05;24.20;54.90
12164;DHT22;6145;50.192;10.064;2023-07-16T09:39:32;24.20;55.70
12164;DHT22;6145;50.192;10.064;2023-07-16T09:42:00;24.30;55.10
12164;DHT22;6145;50.192;10.064;2023-07-16T09:44:30;24.20;55.80
12164;DHT22;6145;50.192;10.064;2023-07-16T09:46:57;24.20;56.80
12164;DHT22;6145;50.192;10.064;2023-07-16T09:49:26;24.30;56.70
12164;DHT22;6145;50.192;10.064;2023-07-16T09:51:56;24.60;56.80
12164;DHT22;6145;50.192;10.064;2023-07-16T09:54:25;24.60;56.60
12164;DHT22;6145;50.192;10.064;2023-07-16T09:56:56;24.80;56.50
12164;DHT22;6145;50.192;10.064;2023-07-16T09:59:28;24.90;56.70
12164;DHT22;6145;50.192;10.064;2023-07-16T10:01:57;25.00;56.80
12164;DHT22;6145;50.192;10.064;2023-07-16T10:04:37;25.30;57.00
12164;DHT22;6145;50.192;10.064;2023-07-16T10:07:04;25.50;56.60
12164;DHT22;6145;50.192;10.064;2023-07-16T10:09:35;25.60;55.30
12164;DHT22;6145;50.192;10.064;2023-07-16T10:12:22;25.70;53.50
12164;DHT22;6145;50.192;10.064;2023-07-16T10:14:52;25.80;52.90
12164;DHT22;6145;50.192;10.064;2023-07-16T10:17:20;25.80;53.20
12164;DHT22;6145;50.192;10.064;2023-07-16T10:19:52;25.90;52.90
12164;DHT22;6145;50.192;10.064;2023-07-16T10:22:32;26.00;52.30
12164;DHT22;6145;50.192;10.064;2023-07-16T10:24:59;26.10;52.60
12164;DHT22;6145;50.192;10.064;2023-07-16T10:27:31;26.20;52.40
12164;DHT22;6145;50.192;10.064;2023-07-16T10:30:00;26.30;52.80
12164;DHT22;6145;50.192;10.064;2023-07-16T10:32:29;26.30;51.70
12164;DHT22;6145;50.192;10.064;2023-07-16T10:34:57;26.30;51.70
12164;DHT22;6145;50.192;10.064;2023-07-16T10:37:24;26.40;50.60
12164;DHT22;6145;50.192;10.064;2023-07-16T10:39:54;26.30;51.60
12164;DHT22;6145;50.192;10.064;2023-07-16T10:42:23;26.50;50.70
12164;DHT22;6145;50.192;10.064;2023-07-16T10:44:51;26.50;51.20
12164;DHT22;6145;50.192;10.064;2023-07-16T10:47:22;26.60;51.50
12164;DHT22;6145;50.192;10.064;2023-07-16T10:49:50;26.80;51.50
12164;DHT22;6145;50.192;10.064;2023-07-16T10:52:20;26.90;50.90
12164;DHT22;6145;50.192;10.064;2023-07-16T10:54:47;27.10;51.20
12164;DHT22;6145;50.192;10.064;2023-07-16T10:57:16;27.20;51.20
12164;DHT22;6145;50.192;10.064;2023-07-16T10:59:45;27.30;49.30
12164;DHT22;6145;50.192;10.064;2023-07-16T11:02:14;27.30;48.50
12164;DHT22;6145;50.192;10.064;2023-07-16T11:04:53;27.30;48.70
12164;DHT22;6145;50.192;10.064;2023-07-16T11:07:22;27.40;47.30
12164;DHT22;6145;50.192;10.064;2023-07-16T11:09:50;27.30;48.60
12164;DHT22;6145;50.192;10.064;2023-07-16T11:12:19;27.30;48.10
12164;DHT22;6145;50.192;10.064;2023-07-16T11:14:49;27.20;47.80
12164;DHT22;6145;50.192;10.064;2023-07-16T11:17:16;27.20;46.90
12164;DHT22;6145;50.192;10.064;2023-07-16T11:19:45;27.20;48.00
12164;DHT22;6145;50.192;10.064;2023-07-16T11:22:14;27.30;48.10
12164;DHT22;6145;50.192;10.064;2023-07-16T11:24:43;27.30;48.50
12164;DHT22;6145;50.192;10.064;2023-07-16T11:27:20;27.30;47.50
12164;DHT22;6145;50.192;10.064;2023-07-16T11:30:00;27.30;47.90
12164;DHT22;6145;50.192;10.064;2023-07-16T11:32:30;27.50;46.80
12164;DHT22;6145;50.192;10.064;2023-07-16T11:35:03;27.50;47.90
12164;DHT22;6145;50.192;10.064;2023-07-16T11:37:39;27.50;48.30
12164;DHT22;6145;50.192;10.064;2023-07-16T11:40:07;27.60;47.20
12164;DHT22;6145;50.192;10.064;2023-07-16T11:42:38;27.70;47.70
12164;DHT22;6145;50.192;10.064;2023-07-16T11:45:18;27.60;46.90
12164;DHT22;6145;50.192;10.064;2023-07-16T11:47:51;27.60;46.70
12164;DHT22;6145;50.192;10.064;2023-07-16T11:50:25;27.80;46.10
12164;DHT22;6145;50.192;10.064;2023-07-16T11:53:03;27.90;46.40
12164;DHT22;6145;50.192;10.064;2023-07-16T11:55:48;27.90;46.90
12164;DHT22;6145;50.192;10.064;2023-07-16T11:58:18;27.80;46.30
12164;DHT22;6145;50.192;10.064;2023-07-16T12:00:45;27.80;46.60
12164;DHT22;6145;50.192;10.064;2023-07-16T12:03:21;27.90;46.40
12164;DHT22;6145;50.192;10.064;2023-07-16T12:05:48;27.90;45.90
12164;DHT22;6145;50.192;10.064;2023-07-16T12:08:19;27.80;45.90
12164;DHT22;6145;50.192;10.064;2023-07-16T12:10:46;27.80;45.80
12164;DHT22;6145;50.192;10.064;2023-07-16T12:13:13;27.80;45.00
12164;DHT22;6145;50.192;10.064;2023-07-16T12:15:40;28.10;44.90
12164;DHT22;6145;50.192;10.064;2023-07-16T12:18:08;28.00;45.00
12164;DHT22;6145;50.192;10.064;2023-07-16T12:20:35;28.60;44.90
12164;DHT22;6145;50.192;10.064;2023-07-16T12:23:05;28.00;44.40
12164;DHT22;6145;50.192;10.064;2023-07-16T12:25:33;28.10;44.10
12164;DHT22;6145;50.192;10.064;2023-07-16T12:28:01;28.20;44.90
12164;DHT22;6145;50.192;10.064;2023-07-16T12:30:30;28.50;44.70
12164;DHT22;6145;50.192;10.064;2023-07-16T12:32:57;28.10;42.90
12164;DHT22;6145;50.192;10.064;2023-07-16T12:35:36;28.50;43.20
12164;DHT22;6145;50.192;10.064;2023-07-16T12:38:03;28.50;43.00
12164;DHT22;6145;50.192;10.064;2023-07-16T12:40:38;28.50;43.00
12164;DHT22;6145;50.192;10.064;2023-07-16T12:43:12;28.50;42.80
12164;DHT22;6145;50.192;10.064;2023-07-16T12:45:39;28.60;42.40
12164;DHT22;6145;50.192;10.064;2023-07-16T12:48:12;28.60;43.50
12164;DHT22;6145;50.192;10.064;2023-07-16T12:50:39;28.50;44.20
12164;DHT22;6145;50.192;10.064;2023-07-16T12:53:16;28.80;43.40
12164;DHT22;6145;50.192;10.064;2023-07-16T12:55:57;28.90;42.40
12164;DHT22;6145;50.192;10.064;2023-07-16T12:58:33;29.00;42.40
12164;DHT22;6145;50.192;10.064;2023-07-16T13:01:03;29.00;41.70
12164;DHT22;6145;50.192;10.064;2023-07-16T13:03:51;28.90;42.50
12164;DHT22;6145;50.192;10.064;2023-07-16T13:06:18;29.00;42.30
12164;DHT22;6145;50.192;10.064;2023-07-16T13:08:51;29.10;42.30
12164;DHT22;6145;50.192;10.064;2023-07-16T13:11:19;29.10;41.50
12164;DHT22;6145;50.192;10.064;2023-07-16T13:13:46;29.20;41.60
12164;DHT22;6145;50.192;10.064;2023-07-16T13:16:13;29.20;41.30
12164;DHT22;6145;50.192;10.064;2023-07-16T13:18:40;29.20;41.70
12164;DHT22;6145;50.192;10.064;2023-07-16T13:21:07;29.30;41.10
12164;DHT22;6145;50.192;10.064;2023-07-16T13:23:34;29.30;41.40
12164;DHT22;6145;50.192;10.064;2023-07-16T13:26:01;29.40;41.80
12164;DHT22;6145;50.192;10.064;2023-07-16T13:28:29;29.50;41.60
12164;DHT22;6145;50.192;10.064;2023-07-16T13:30:56;29.70;40.80
12164;DHT22;6145;50.192;10.064;2023-07-16T13:33:23;29.80;40.10
12164;DHT22;6145;50.192;10.064;2023-07-16T13:35:50;29.80;40.60
12164;DHT22;6145;50.192;10.064;2023-07-16T13:38:17;29.90;41.00
12164;DHT22;6145;50.192;10.064;2023-07-16T13:40:44;30.00;41.00
12164;DHT22;6145;50.192;10.064;2023-07-16T13:43:10;30.00;39.60
12164;DHT22;6145;50.192;10.064;2023-07-16T13:45:40;30.00;39.60
12164;DHT22;6145;50.192;10.064;2023-07-16T13:48:06;30.00;39.30
12164;DHT22;6145;50.192;10.064;2023-07-16T13:50:33;30.00;39.90
12164;DHT22;6145;50.192;10.064;2023-07-16T13:53:00;30.00;40.20
12164;DHT22;6145;50.192;10.064;2023-07-16T13:55:28;30.10;40.50
12164;DHT22;6145;50.192;10.064;2023-07-16T13:57:56;30.30;40.70
12164;DHT22;6145;50.192;10.064;2023-07-16T14:00:23;30.30;40.00
12164;DHT22;6145;50.192;10.064;2023-07-16T14:02:52;30.40;38.90
12164;DHT22;6145;50.192;10.064;2023-07-16T14:05:19;30.40;38.20
12164;DHT22;6145;50.192;10.064;2023-07-16T14:07:46;30.50;37.90
12164;DHT22;6145;50.192;10.064;2023-07-16T14:10:13;30.50;37.70
12164;DHT22;6145;50.192;10.064;2023-07-16T14:12:40;30.50;37.90
12164;DHT22;6145;50.192;10.064;2023-07-16T14:15:07;30.70;37.90
12164;DHT22;6145;50.192;10.064;2023-07-16T14:17:34;30.50;37.70
12164;DHT22;6145;50.192;10.064;2023-07-16T14:20:03;30.50;38.00
12164;DHT22;6145;50.192;10.064;2023-07-16T14:22:30;30.50;38.10
12164;DHT22;6145;50.192;10.064;2023-07-16T14:24:56;30.50;37.50
12164;DHT22;6145;50.192;10.064;2023-07-16T14:27:23;30.60;37.40
12164;DHT22;6145;50.192;10.064;2023-07-16T14:29:50;30.50;36.50
12164;DHT22;6145;50.192;10.064;2023-07-16T14:32:17;30.40;36.70
12164;DHT22;6145;50.192;10.064;2023-07-16T14:34:44;30.20;37.20
12164;DHT22;6145;50.192;10.064;2023-07-16T14:37:12;30.20;36.40
12164;DHT22;6145;50.192;10.064;2023-07-16T14:39:39;30.10;37.30
12164;DHT22;6145;50.192;10.064;2023-07-16T14:42:06;30.10;37.40
12164;DHT22;6145;50.192;10.064;2023-07-16T14:44:33;30.20;37.80
12164;DHT22;6145;50.192;10.064;2023-07-16T14:46:59;30.20;37.60
12164;DHT22;6145;50.192;10.064;2023-07-16T14:49:26;30.10;37.90
12164;DHT22;6145;50.192;10.064;2023-07-16T14:51:53;30.30;37.40
12164;DHT22;6145;50.192;10.064;2023-07-16T14:54:21;30.20;37.50
12164;DHT22;6145;50.192;10.064;2023-07-16T14:56:48;30.50;37.30
12164;DHT22;6145;50.192;10.064;2023-07-16T14:59:15;30.10;37.10
12164;DHT22;6145;50.192;10.064;2023-07-16T15:01:43;30.00;38.70
12164;DHT22;6145;50.192;10.064;2023-07-16T15:04:10;29.80;37.80
12164;DHT22;6145;50.192;10.064;2023-07-16T15:06:36;30.20;38.40
12164;DHT22;6145;50.192;10.064;2023-07-16T15:09:03;30.20;38.50
12164;DHT22;6145;50.192;10.064;2023-07-16T15:11:32;30.10;37.60
12164;DHT22;6145;50.192;10.064;2023-07-16T15:13:59;30.30;37.10
12164;DHT22;6145;50.192;10.064;2023-07-16T15:16:26;30.40;38.00
12164;DHT22;6145;50.192;10.064;2023-07-16T15:18:53;30.40;37.60
12164;DHT22;6145;50.192;10.064;2023-07-16T15:21:20;30.40;38.00
12164;DHT22;6145;50.192;10.064;2023-07-16T15:23:47;30.50;38.50
12164;DHT22;6145;50.192;10.064;2023-07-16T15:26:21;30.60;39.00
12164;DHT22;6145;50.192;10.064;2023-07-16T15:28:54;30.60;38.10
12164;DHT22;6145;50.192;10.064;2023-07-16T15:31:21;30.70;37.40
12164;DHT22;6145;50.192;10.064;2023-07-16T15:33:52;30.70;37.20
12164;DHT22;6145;50.192;10.064;2023-07-16T15:36:19;30.80;36.90
12164;DHT22;6145;50.192;10.064;2023-07-16T15:38:46;30.50;37.20
12164;DHT22;6145;50.192;10.064;2023-07-16T15:41:15;30.80;36.70
12164;DHT22;6145;50.192;10.064;2023-07-16T15:43:43;30.80;36.60
12164;DHT22;6145;50.192;10.064;2023-07-16T15:46:15;30.70;37.50
12164;DHT22;6145;50.192;10.064;2023-07-16T15:48:43;30.70;37.10
12164;DHT22;6145;50.192;10.064;2023-07-16T15:51:11;30.70;37.70
12164;DHT22;6145;50.192;10.064;2023-07-16T15:53:38;30.80;36.90
12164;DHT22;6145;50.192;10.064;2023-07-16T15:56:05;30.90;37.10
12164;DHT22;6145;50.192;10.064;2023-07-16T15:58:32;30.70;36.40
12164;DHT22;6145;50.192;10.064;2023-07-16T16:00:58;30.70;36.80
12164;DHT22;6145;50.192;10.064;2023-07-16T16:03:27;30.80;36.90
12164;DHT22;6145;50.192;10.064;2023-07-16T16:05:54;30.80;37.50
12164;DHT22;6145;50.192;10.064;2023-07-16T16:08:21;30.80;36.50
12164;DHT22;6145;50.192;10.064;2023-07-16T16:10:51;30.70;36.40
12164;DHT22;6145;50.192;10.064;2023-07-16T16:13:18;30.50;36.40